sensor_id;sensor_type;location;lat;lon;timestamp;temperature;humidity
65155;DHT22;51741;52.344;-1.580;2022-08-03T00:02:03;25.30;56.50
65155;DHT22;51741;52.344;-1.580;2022-08-03T00:04:29;25.20;56.50
65155;DHT22;51741;52.344;-1.580;2022-08-03T00:06:54;25.20;56.50
65155;DHT22;51741;52.344;-1.580;2022-08-03T00:09:20;25.20;56.50
65155;DHT22;51741;52.344;-1.580;2022-08-03T00:11:45;25.20;56.50
65155;DHT22;51741;52.344;-1.580;2022-08-03T00:14:11;25.30;56.60
65155;DHT22;51741;52.344;-1.580;2022-08-03T00:16:37;25.20;56.50
65155;DHT22;51741;52.344;-1.580;2022-08-03T00:19:03;25.20;56.50
65155;DHT22;51741;52.344;-1.580;2022-08-03T00:21:29;25.20;56.50
65155;DHT22;51741;52.344;-1.580;2022-08-03T00:23:55;25.20;56.50
65155;DHT22;51741;52.344;-1.580;2022-08-03T00:26:20;25.20;56.40
65155;DHT22;51741;52.344;-1.580;2022-08-03T00:28:47;25.20;56.50
65155;DHT22;51741;52.344;-1.580;2022-08-03T00:31:13;25.20;56.50
65155;DHT22;51741;52.344;-1.580;2022-08-03T00:33:39;25.20;56.50
65155;DHT22;51741;52.344;-1.580;2022-08-03T00:36:04;25.20;56.50
65155;DHT22;51741;52.344;-1.580;2022-08-03T00:38:30;25.20;56.50
65155;DHT22;51741;52.344;-1.580;2022-08-03T00:40:56;25.20;56.60
65155;DHT22;51741;52.344;-1.580;2022-08-03T00:43:24;25.20;56.50
65155;DHT22;51741;52.344;-1.580;2022-08-03T00:45:50;25.20;56.50
65155;DHT22;51741;52.344;-1.580;2022-08-03T00:48:16;25.20;56.50
65155;DHT22;51741;52.344;-1.580;2022-08-03T00:50:42;25.20;56.60
65155;DHT22;51741;52.344;-1.580;2022-08-03T00:53:10;25.20;56.50
65155;DHT22;51741;52.344;-1.580;2022-08-03T00:55:40;25.20;56.60
65155;DHT22;51741;52.344;-1.580;2022-08-03T00:58:07;25.20;56.50
65155;DHT22;51741;52.344;-1.580;2022-08-03T01:00:34;25.20;56.60
65155;DHT22;51741;52.344;-1.580;2022-08-03T01:03:01;25.10;56.50
65155;DHT22;51741;52.344;-1.580;2022-08-03T01:05:28;25.10;56.50
65155;DHT22;51741;52.344;-1.580;2022-08-03T01:08:32;25.10;56.50
65155;DHT22;51741;52.344;-1.580;2022-08-03T01:13:40;25.10;56.60
65155;DHT22;51741;52.344;-1.580;2022-08-03T01:19:02;25.20;56.60
65155;DHT22;51741;52.344;-1.580;2022-08-03T01:32:21;25.10;56.60
65155;DHT22;51741;52.344;-1.580;2022-08-03T01:34:51;25.20;56.60
65155;DHT22;51741;52.344;-1.580;2022-08-03T01:37:26;25.10;56.60
65155;DHT22;51741;52.344;-1.580;2022-08-03T01:39:57;25.10;56.60
65155;DHT22;51741;52.344;-1.580;2022-08-03T01:42:26;25.10;56.60
65155;DHT22;51741;52.344;-1.580;2022-08-03T01:44:54;25.10;56.60
65155;DHT22;51741;52.344;-1.580;2022-08-03T01:47:22;25.10;56.60
65155;DHT22;51741;52.344;-1.580;2022-08-03T01:49:49;25.10;56.60
65155;DHT22;51741;52.344;-1.580;2022-08-03T01:52:17;25.10;56.70
65155;DHT22;51741;52.344;-1.580;2022-08-03T01:54:47;25.10;56.70
65155;DHT22;51741;52.344;-1.580;2022-08-03T01:57:14;25.10;56.60
65155;DHT22;51741;52.344;-1.580;2022-08-03T01:59:41;25.10;56.60
65155;DHT22;51741;52.344;-1.580;2022-08-03T02:02:11;25.10;55.80
65155;DHT22;51741;52.344;-1.580;2022-08-03T02:04:40;25.10;56.70
65155;DHT22;51741;52.344;-1.580;2022-08-03T02:07:07;25.10;56.70
65155;DHT22;51741;52.344;-1.580;2022-08-03T02:09:36;25.10;56.60
65155;DHT22;51741;52.344;-1.580;2022-08-03T02:12:07;25.10;56.60
65155;DHT22;51741;52.344;-1.580;2022-08-03T02:14:33;25.10;56.60
65155;DHT22;51741;52.344;-1.580;2022-08-03T02:17:00;25.10;56.60
65155;DHT22;51741;52.344;-1.580;2022-08-03T02:19:26;25.10;56.60
65155;DHT22;51741;52.344;-1.580;2022-08-03T02:21:53;25.10;56.60
65155;DHT22;51741;52.344;-1.580;2022-08-03T02:24:19;25.10;56.60
65155;DHT22;51741;52.344;-1.580;2022-08-03T02:26:45;25.10;56.60
65155;DHT22;51741;52.344;-1.580;2022-08-03T02:29:15;25.10;56.60
65155;DHT22;51741;52.344;-1.580;2022-08-03T02:31:44;25.10;56.60
65155;DHT22;51741;52.344;-1.580;2022-08-03T02:34:13;25.00;56.50
65155;DHT22;51741;52.344;-1.580;2022-08-03T02:36:41;25.00;56.50
65155;DHT22;51741;52.344;-1.580;2022-08-03T02:39:10;25.00;56.50
65155;DHT22;51741;52.344;-1.580;2022-08-03T02:41:45;25.00;56.50
65155;DHT22;51741;52.344;-1.580;2022-08-03T02:44:12;25.00;56.50
65155;DHT22;51741;52.344;-1.580;2022-08-03T02:46:45;25.00;56.50
65155;DHT22;51741;52.344;-1.580;2022-08-03T02:49:13;25.00;57.40
65155;DHT22;51741;52.344;-1.580;2022-08-03T02:51:41;25.00;56.50
65155;DHT22;51741;52.344;-1.580;2022-08-03T02:54:08;25.00;56.40
65155;DHT22;51741;52.344;-1.580;2022-08-03T02:56:36;25.00;56.40
65155;DHT22;51741;52.344;-1.580;2022-08-03T02:59:03;25.00;56.40
65155;DHT22;51741;52.344;-1.580;2022-08-03T03:01:30;25.00;56.50
65155;DHT22;51741;52.344;-1.580;2022-08-03T03:03:57;25.00;56.40
65155;DHT22;51741;52.344;-1.580;2022-08-03T03:06:27;25.00;56.50
65155;DHT22;51741;52.344;-1.580;2022-08-03T03:08:53;25.00;56.40
65155;DHT22;51741;52.344;-1.580;2022-08-03T03:11:21;25.00;56.40
65155;DHT22;51741;52.344;-1.580;2022-08-03T03:13:48;25.00;56.40
65155;DHT22;51741;52.344;-1.580;2022-08-03T03:16:15;25.00;56.40
65155;DHT22;51741;52.344;-1.580;2022-08-03T03:18:44;25.00;56.40
65155;DHT22;51741;52.344;-1.580;2022-08-03T03:21:10;25.00;56.40
65155;DHT22;51741;52.344;-1.580;2022-08-03T03:23:38;25.00;56.40
65155;DHT22;51741;52.344;-1.580;2022-08-03T03:26:05;25.00;56.40
65155;DHT22;51741;52.344;-1.580;2022-08-03T03:28:31;25.00;56.50
65155;DHT22;51741;52.344;-1.580;2022-08-03T03:30:58;25.00;56.40
65155;DHT22;51741;52.344;-1.580;2022-08-03T03:33:24;25.00;56.40
65155;DHT22;51741;52.344;-1.580;2022-08-03T03:35:50;25.00;56.40
65155;DHT22;51741;52.344;-1.580;2022-08-03T03:38:17;25.00;56.40
65155;DHT22;51741;52.344;-1.580;2022-08-03T03:40:43;25.00;56.40
65155;DHT22;51741;52.344;-1.580;2022-08-03T03:43:10;25.00;56.40
65155;DHT22;51741;52.344;-1.580;2022-08-03T03:45:36;24.90;56.20
65155;DHT22;51741;52.344;-1.580;2022-08-03T03:48:03;24.90;56.70
65155;DHT22;51741;52.344;-1.580;2022-08-03T03:50:30;24.90;56.30
65155;DHT22;51741;52.344;-1.580;2022-08-03T03:52:57;24.90;56.30
65155;DHT22;51741;52.344;-1.580;2022-08-03T03:55:22;24.90;56.30
65155;DHT22;51741;52.344;-1.580;2022-08-03T03:57:48;24.90;56.20
65155;DHT22;51741;52.344;-1.580;2022-08-03T04:00:16;24.90;56.30
65155;DHT22;51741;52.344;-1.580;2022-08-03T04:02:42;24.90;56.20
65155;DHT22;51741;52.344;-1.580;2022-08-03T04:05:08;24.90;56.30
65155;DHT22;51741;52.344;-1.580;2022-08-03T04:08:11;24.90;56.20
65155;DHT22;51741;52.344;-1.580;2022-08-03T04:16:25;24.90;56.30
65155;DHT22;51741;52.344;-1.580;2022-08-03T04:18:56;24.90;56.30
65155;DHT22;51741;52.344;-1.580;2022-08-03T04:21:24;24.90;56.30
65155;DHT22;51741;52.344;-1.580;2022-08-03T04:23:52;24.90;56.20
65155;DHT22;51741;52.344;-1.580;2022-08-03T04:26:21;24.90;56.30
65155;DHT22;51741;52.344;-1.580;2022-08-03T04:28:47;24.90;56.30
65155;DHT22;51741;52.344;-1.580;2022-08-03T04:31:16;24.90;56.30
65155;DHT22;51741;52.344;-1.580;2022-08-03T04:33:43;24.90;56.30
65155;DHT22;51741;52.344;-1.580;2022-08-03T04:36:14;24.90;56.30
65155;DHT22;51741;52.344;-1.580;2022-08-03T04:41:26;24.90;56.30
65155;DHT22;51741;52.344;-1.580;2022-08-03T04:43:54;24.80;56.30
65155;DHT22;51741;52.344;-1.580;2022-08-03T04:46:22;24.90;56.30
65155;DHT22;51741;52.344;-1.580;2022-08-03T04:48:50;24.90;56.30
65155;DHT22;51741;52.344;-1.580;2022-08-03T04:51:17;24.90;56.30
65155;DHT22;51741;52.344;-1.580;2022-08-03T04:53:43;24.80;57.20
65155;DHT22;51741;52.344;-1.580;2022-08-03T04:56:09;24.90;56.40
65155;DHT22;51741;52.344;-1.580;2022-08-03T04:58:34;24.90;56.40
65155;DHT22;51741;52.344;-1.580;2022-08-03T05:01:00;24.90;56.40
65155;DHT22;51741;52.344;-1.580;2022-08-03T05:03:26;24.90;56.30
65155;DHT22;51741;52.344;-1.580;2022-08-03T05:05:52;24.90;56.30
65155;DHT22;51741;52.344;-1.580;2022-08-03T05:08:19;24.90;56.30
65155;DHT22;51741;52.344;-1.580;2022-08-03T05:10:45;24.90;56.30
65155;DHT22;51741;52.344;-1.580;2022-08-03T05:13:11;24.80;56.30
65155;DHT22;51741;52.344;-1.580;2022-08-03T05:15:38;24.90;56.30
65155;DHT22;51741;52.344;-1.580;2022-08-03T05:18:04;24.90;56.30
65155;DHT22;51741;52.344;-1.580;2022-08-03T05:20:30;24.80;56.30
65155;DHT22;51741;52.344;-1.580;2022-08-03T05:22:56;24.90;56.30
65155;DHT22;51741;52.344;-1.580;2022-08-03T05:25:23;24.80;56.20
65155;DHT22;51741;52.344;-1.580;2022-08-03T05:27:49;24.90;56.30
65155;DHT22;51741;52.344;-1.580;2022-08-03T05:30:15;24.90;56.20
65155;DHT22;51741;52.344;-1.580;2022-08-03T05:32:41;24.90;56.20
65155;DHT22;51741;52.344;-1.580;2022-08-03T05:35:07;24.90;56.10
65155;DHT22;51741;52.344;-1.580;2022-08-03T05:37:32;24.90;56.10
65155;DHT22;51741;52.344;-1.580;2022-08-03T05:39:58;24.90;56.10
65155;DHT22;51741;52.344;-1.580;2022-08-03T05:42:24;24.90;56.10
65155;DHT22;51741;52.344;-1.580;2022-08-03T05:44:50;24.90;56.10
65155;DHT22;51741;52.344;-1.580;2022-08-03T05:47:15;24.90;56.10
65155;DHT22;51741;52.344;-1.580;2022-08-03T05:49:41;24.90;56.00
65155;DHT22;51741;52.344;-1.580;2022-08-03T05:52:07;25.00;56.00
65155;DHT22;51741;52.344;-1.580;2022-08-03T05:54:32;25.00;55.90
65155;DHT22;51741;52.344;-1.580;2022-08-03T05:56:58;25.00;55.80
65155;DHT22;51741;52.344;-1.580;2022-08-03T05:59:24;25.00;55.80
65155;DHT22;51741;52.344;-1.580;2022-08-03T06:01:50;25.00;55.80
65155;DHT22;51741;52.344;-1.580;2022-08-03T06:04:16;25.00;55.80
65155;DHT22;51741;52.344;-1.580;2022-08-03T06:06:42;25.10;55.50
65155;DHT22;51741;52.344;-1.580;2022-08-03T06:09:08;25.10;55.60
65155;DHT22;51741;52.344;-1.580;2022-08-03T06:11:35;25.20;55.20
65155;DHT22;51741;52.344;-1.580;2022-08-03T06:14:01;25.30;55.40
65155;DHT22;51741;52.344;-1.580;2022-08-03T06:16:27;25.50;54.80
65155;DHT22;51741;52.344;-1.580;2022-08-03T06:18:53;25.60;54.30
65155;DHT22;51741;52.344;-1.580;2022-08-03T06:21:18;25.60;54.40
65155;DHT22;51741;52.344;-1.580;2022-08-03T06:23:44;25.50;54.40
65155;DHT22;51741;52.344;-1.580;2022-08-03T06:26:10;25.40;54.80
65155;DHT22;51741;52.344;-1.580;2022-08-03T06:28:36;25.30;55.00
65155;DHT22;51741;52.344;-1.580;2022-08-03T06:31:02;25.20;55.10
65155;DHT22;51741;52.344;-1.580;2022-08-03T06:33:28;25.10;55.20
65155;DHT22;51741;52.344;-1.580;2022-08-03T06:35:54;25.10;55.30
65155;DHT22;51741;52.344;-1.580;2022-08-03T06:38:20;25.10;55.30
65155;DHT22;51741;52.344;-1.580;2022-08-03T06:40:46;25.10;55.40
65155;DHT22;51741;52.344;-1.580;2022-08-03T06:43:11;25.10;55.50
65155;DHT22;51741;52.344;-1.580;2022-08-03T06:45:40;25.00;55.50
65155;DHT22;51741;52.344;-1.580;2022-08-03T06:48:07;25.10;55.60
65155;DHT22;51741;52.344;-1.580;2022-08-03T06:50:35;25.10;55.70
65155;DHT22;51741;52.344;-1.580;2022-08-03T06:53:02;25.00;55.50
65155;DHT22;51741;52.344;-1.580;2022-08-03T06:55:28;25.10;55.70
65155;DHT22;51741;52.344;-1.580;2022-08-03T06:57:54;25.00;55.60
65155;DHT22;51741;52.344;-1.580;2022-08-03T07:00:20;25.00;55.60
65155;DHT22;51741;52.344;-1.580;2022-08-03T07:02:46;25.00;55.70
65155;DHT22;51741;52.344;-1.580;2022-08-03T07:05:12;25.00;55.70
65155;DHT22;51741;52.344;-1.580;2022-08-03T07:07:39;25.00;55.70
65155;DHT22;51741;52.344;-1.580;2022-08-03T07:10:05;25.00;55.80
65155;DHT22;51741;52.344;-1.580;2022-08-03T07:12:33;25.00;55.70
65155;DHT22;51741;52.344;-1.580;2022-08-03T07:14:59;25.00;55.80
65155;DHT22;51741;52.344;-1.580;2022-08-03T07:17:26;25.00;55.80
65155;DHT22;51741;52.344;-1.580;2022-08-03T07:19:51;25.00;55.80
65155;DHT22;51741;52.344;-1.580;2022-08-03T07:22:17;25.00;55.80
65155;DHT22;51741;52.344;-1.580;2022-08-03T07:24:43;25.00;55.80
65155;DHT22;51741;52.344;-1.580;2022-08-03T07:27:10;25.00;55.80
65155;DHT22;51741;52.344;-1.580;2022-08-03T07:29:36;25.00;55.80
65155;DHT22;51741;52.344;-1.580;2022-08-03T07:32:03;25.00;55.90
65155;DHT22;51741;52.344;-1.580;2022-08-03T07:34:29;25.00;55.90
65155;DHT22;51741;52.344;-1.580;2022-08-03T07:36:55;25.00;56.00
65155;DHT22;51741;52.344;-1.580;2022-08-03T07:39:20;25.00;56.00
65155;DHT22;51741;52.344;-1.580;2022-08-03T07:41:46;25.00;56.00
65155;DHT22;51741;52.344;-1.580;2022-08-03T07:44:14;25.00;56.10
65155;DHT22;51741;52.344;-1.580;2022-08-03T07:46:40;25.00;56.10
65155;DHT22;51741;52.344;-1.580;2022-08-03T07:49:05;25.00;56.20
65155;DHT22;51741;52.344;-1.580;2022-08-03T07:51:31;25.00;56.20
65155;DHT22;51741;52.344;-1.580;2022-08-03T07:53:57;25.00;56.20
65155;DHT22;51741;52.344;-1.580;2022-08-03T07:56:23;25.00;56.20
65155;DHT22;51741;52.344;-1.580;2022-08-03T07:58:53;25.00;55.40
65155;DHT22;51741;52.344;-1.580;2022-08-03T08:01:25;25.00;56.20
65155;DHT22;51741;52.344;-1.580;2022-08-03T08:03:50;24.90;56.20
65155;DHT22;51741;52.344;-1.580;2022-08-03T08:06:16;24.90;56.60
65155;DHT22;51741;52.344;-1.580;2022-08-03T08:08:42;24.80;57.80
65155;DHT22;51741;52.344;-1.580;2022-08-03T08:11:11;24.80;57.00
65155;DHT22;51741;52.344;-1.580;2022-08-03T08:13:37;24.80;57.00
65155;DHT22;51741;52.344;-1.580;2022-08-03T08:16:03;24.70;57.10
65155;DHT22;51741;52.344;-1.580;2022-08-03T08:18:29;24.80;57.20
65155;DHT22;51741;52.344;-1.580;2022-08-03T08:20:56;24.80;57.20
65155;DHT22;51741;52.344;-1.580;2022-08-03T08:23:21;24.80;57.30
65155;DHT22;51741;52.344;-1.580;2022-08-03T08:26:14;24.70;56.60
65155;DHT22;51741;52.344;-1.580;2022-08-03T08:28:40;24.80;57.40
65155;DHT22;51741;52.344;-1.580;2022-08-03T08:31:06;24.70;57.40
65155;DHT22;51741;52.344;-1.580;2022-08-03T08:33:32;24.80;57.40
65155;DHT22;51741;52.344;-1.580;2022-08-03T08:35:59;24.70;57.50
65155;DHT22;51741;52.344;-1.580;2022-08-03T08:38:25;24.70;57.60
65155;DHT22;51741;52.344;-1.580;2022-08-03T08:40:54;24.70;57.50
65155;DHT22;51741;52.344;-1.580;2022-08-03T08:43:23;24.80;57.60
65155;DHT22;51741;52.344;-1.580;2022-08-03T08:45:49;24.70;57.60
65155;DHT22;51741;52.344;-1.580;2022-08-03T08:48:19;24.70;57.70
65155;DHT22;51741;52.344;-1.580;2022-08-03T08:50:47;24.80;57.80
65155;DHT22;51741;52.344;-1.580;2022-08-03T08:53:17;24.80;57.70
65155;DHT22;51741;52.344;-1.580;2022-08-03T08:55:47;24.80;57.80
65155;DHT22;51741;52.344;-1.580;2022-08-03T08:58:16;24.80;57.90
65155;DHT22;51741;52.344;-1.580;2022-08-03T09:00:44;24.80;58.00
65155;DHT22;51741;52.344;-1.580;2022-08-03T09:03:11;24.80;57.90
65155;DHT22;51741;52.344;-1.580;2022-08-03T09:05:46;24.80;57.90
65155;DHT22;51741;52.344;-1.580;2022-08-03T09:08:12;24.80;57.90
65155;DHT22;51741;52.344;-1.580;2022-08-03T09:10:38;24.80;58.00
65155;DHT22;51741;52.344;-1.580;2022-08-03T09:17:08;24.80;58.00
65155;DHT22;51741;52.344;-1.580;2022-08-03T09:19:35;24.80;58.20
65155;DHT22;51741;52.344;-1.580;2022-08-03T09:22:17;24.80;58.20
65155;DHT22;51741;52.344;-1.580;2022-08-03T09:25:04;24.90;58.20
65155;DHT22;51741;52.344;-1.580;2022-08-03T09:27:41;24.90;58.10
65155;DHT22;51741;52.344;-1.580;2022-08-03T09:30:21;24.90;58.10
65155;DHT22;51741;52.344;-1.580;2022-08-03T09:32:47;25.00;58.20
65155;DHT22;51741;52.344;-1.580;2022-08-03T09:35:13;24.90;58.10
65155;DHT22;51741;52.344;-1.580;2022-08-03T09:37:41;24.90;59.20
65155;DHT22;51741;52.344;-1.580;2022-08-03T09:40:08;25.00;58.30
65155;DHT22;51741;52.344;-1.580;2022-08-03T09:42:36;25.00;58.30
65155;DHT22;51741;52.344;-1.580;2022-08-03T09:45:05;25.00;58.40
65155;DHT22;51741;52.344;-1.580;2022-08-03T09:47:34;25.00;58.60
65155;DHT22;51741;52.344;-1.580;2022-08-03T09:50:10;25.00;58.80
65155;DHT22;51741;52.344;-1.580;2022-08-03T09:52:39;25.00;59.20
65155;DHT22;51741;52.344;-1.580;2022-08-03T09:55:18;24.90;59.60
65155;DHT22;51741;52.344;-1.580;2022-08-03T09:57:47;24.90;59.80
65155;DHT22;51741;52.344;-1.580;2022-08-03T10:00:15;24.80;60.30
65155;DHT22;51741;52.344;-1.580;2022-08-03T10:02:43;24.70;60.40
65155;DHT22;51741;52.344;-1.580;2022-08-03T10:05:13;24.70;60.40
65155;DHT22;51741;52.344;-1.580;2022-08-03T10:07:43;24.70;60.50
65155;DHT22;51741;52.344;-1.580;2022-08-03T10:10:10;24.70;60.60
65155;DHT22;51741;52.344;-1.580;2022-08-03T10:12:36;24.70;60.60
65155;DHT22;51741;52.344;-1.580;2022-08-03T10:15:06;24.70;60.60
65155;DHT22;51741;52.344;-1.580;2022-08-03T10:17:33;24.80;60.50
65155;DHT22;51741;52.344;-1.580;2022-08-03T10:19:59;24.90;60.60
65155;DHT22;51741;52.344;-1.580;2022-08-03T10:22:32;24.80;60.40
65155;DHT22;51741;52.344;-1.580;2022-08-03T10:24:59;24.90;60.50
65155;DHT22;51741;52.344;-1.580;2022-08-03T10:27:31;25.10;61.20
65155;DHT22;51741;52.344;-1.580;2022-08-03T10:30:01;25.30;59.70
65155;DHT22;51741;52.344;-1.580;2022-08-03T10:35:10;25.40;59.00
65155;DHT22;51741;52.344;-1.580;2022-08-03T10:37:43;25.50;58.90
65155;DHT22;51741;52.344;-1.580;2022-08-03T10:40:13;25.50;59.10
65155;DHT22;51741;52.344;-1.580;2022-08-03T10:42:43;25.40;59.00
65155;DHT22;51741;52.344;-1.580;2022-08-03T10:45:26;25.40;59.20
65155;DHT22;51741;52.344;-1.580;2022-08-03T10:47:56;25.50;59.10
65155;DHT22;51741;52.344;-1.580;2022-08-03T10:50:23;25.50;58.70
65155;DHT22;51741;52.344;-1.580;2022-08-03T10:52:54;25.50;58.90
65155;DHT22;51741;52.344;-1.580;2022-08-03T10:55:37;25.50;58.70
65155;DHT22;51741;52.344;-1.580;2022-08-03T11:01:04;25.60;58.60
65155;DHT22;51741;52.344;-1.580;2022-08-03T11:03:30;25.60;59.10
65155;DHT22;51741;52.344;-1.580;2022-08-03T11:06:24;25.60;58.90
65155;DHT22;51741;52.344;-1.580;2022-08-03T11:11:34;25.60;59.40
65155;DHT22;51741;52.344;-1.580;2022-08-03T11:14:09;25.60;58.90
65155;DHT22;51741;52.344;-1.580;2022-08-03T11:17:06;25.60;58.90
65155;DHT22;51741;52.344;-1.580;2022-08-03T11:19:52;25.60;58.40
65155;DHT22;51741;52.344;-1.580;2022-08-03T11:22:19;25.60;58.20
65155;DHT22;51741;52.344;-1.580;2022-08-03T11:35:15;25.60;57.30
65155;DHT22;51741;52.344;-1.580;2022-08-03T11:51:22;25.60;56.50
65155;DHT22;51741;52.344;-1.580;2022-08-03T11:53:57;25.60;56.60
65155;DHT22;51741;52.344;-1.580;2022-08-03T11:56:23;25.60;56.50
65155;DHT22;51741;52.344;-1.580;2022-08-03T11:58:50;25.60;56.30
65155;DHT22;51741;52.344;-1.580;2022-08-03T12:01:18;25.60;56.30
65155;DHT22;51741;52.344;-1.580;2022-08-03T12:03:44;25.60;55.90
65155;DHT22;51741;52.344;-1.580;2022-08-03T12:06:14;25.60;55.90
65155;DHT22;51741;52.344;-1.580;2022-08-03T12:08:41;25.60;55.70
65155;DHT22;51741;52.344;-1.580;2022-08-03T12:11:09;25.60;55.70
65155;DHT22;51741;52.344;-1.580;2022-08-03T12:13:37;25.60;55.70
65155;DHT22;51741;52.344;-1.580;2022-08-03T12:16:04;25.60;55.60
65155;DHT22;51741;52.344;-1.580;2022-08-03T12:18:30;25.60;55.60
65155;DHT22;51741;52.344;-1.580;2022-08-03T12:21:07;25.60;55.60
65155;DHT22;51741;52.344;-1.580;2022-08-03T12:23:33;25.60;55.60
65155;DHT22;51741;52.344;-1.580;2022-08-03T12:26:04;25.60;55.50
65155;DHT22;51741;52.344;-1.580;2022-08-03T12:28:30;25.60;55.90
65155;DHT22;51741;52.344;-1.580;2022-08-03T12:31:01;25.60;55.20
65155;DHT22;51741;52.344;-1.580;2022-08-03T12:33:27;25.60;55.20
65155;DHT22;51741;52.344;-1.580;2022-08-03T12:36:07;25.60;55.30
65155;DHT22;51741;52.344;-1.580;2022-08-03T12:38:35;25.60;55.30
65155;DHT22;51741;52.344;-1.580;2022-08-03T12:41:04;25.60;55.00
65155;DHT22;51741;52.344;-1.580;2022-08-03T12:43:34;25.60;55.20
65155;DHT22;51741;52.344;-1.580;2022-08-03T12:46:14;25.60;55.20
65155;DHT22;51741;52.344;-1.580;2022-08-03T12:49:03;25.60;55.30
65155;DHT22;51741;52.344;-1.580;2022-08-03T12:51:33;25.60;55.30
65155;DHT22;51741;52.344;-1.580;2022-08-03T12:53:59;25.60;55.30
65155;DHT22;51741;52.344;-1.580;2022-08-03T12:56:25;25.60;55.10
65155;DHT22;51741;52.344;-1.580;2022-08-03T12:58:51;25.60;55.00
65155;DHT22;51741;52.344;-1.580;2022-08-03T13:01:18;25.70;55.00
65155;DHT22;51741;52.344;-1.580;2022-08-03T13:03:48;25.60;55.10
65155;DHT22;51741;52.344;-1.580;2022-08-03T13:06:15;25.70;55.30
65155;DHT22;51741;52.344;-1.580;2022-08-03T13:08:41;25.70;55.20
65155;DHT22;51741;52.344;-1.580;2022-08-03T13:13:47;25.70;55.80
65155;DHT22;51741;52.344;-1.580;2022-08-03T13:16:13;25.70;55.00
65155;DHT22;51741;52.344;-1.580;2022-08-03T13:18:39;25.70;54.80
65155;DHT22;51741;52.344;-1.580;2022-08-03T13:21:04;25.70;54.70
65155;DHT22;51741;52.344;-1.580;2022-08-03T13:23:30;25.70;54.80
65155;DHT22;51741;52.344;-1.580;2022-08-03T13:25:56;25.70;54.70
65155;DHT22;51741;52.344;-1.580;2022-08-03T13:28:22;25.70;54.60
65155;DHT22;51741;52.344;-1.580;2022-08-03T13:30:48;25.70;54.80
65155;DHT22;51741;52.344;-1.580;2022-08-03T13:33:13;25.70;54.80
65155;DHT22;51741;52.344;-1.580;2022-08-03T13:35:39;25.70;55.00
65155;DHT22;51741;52.344;-1.580;2022-08-03T13:38:05;25.70;55.10
65155;DHT22;51741;52.344;-1.580;2022-08-03T13:40:31;25.70;54.90
65155;DHT22;51741;52.344;-1.580;2022-08-03T13:42:57;25.80;55.00
65155;DHT22;51741;52.344;-1.580;2022-08-03T13:45:23;25.80;55.00
65155;DHT22;51741;52.344;-1.580;2022-08-03T13:47:49;25.80;55.00
65155;DHT22;51741;52.344;-1.580;2022-08-03T13:50:15;25.80;55.00
65155;DHT22;51741;52.344;-1.580;2022-08-03T13:52:40;25.80;55.00
65155;DHT22;51741;52.344;-1.580;2022-08-03T13:55:07;25.80;55.00
65155;DHT22;51741;52.344;-1.580;2022-08-03T13:57:34;25.80;55.00
65155;DHT22;51741;52.344;-1.580;2022-08-03T14:00:00;25.80;55.10
65155;DHT22;51741;52.344;-1.580;2022-08-03T14:02:26;25.90;55.00
65155;DHT22;51741;52.344;-1.580;2022-08-03T14:04:52;25.90;55.10
65155;DHT22;51741;52.344;-1.580;2022-08-03T14:07:19;25.90;54.80
65155;DHT22;51741;52.344;-1.580;2022-08-03T14:09:45;25.90;55.00
65155;DHT22;51741;52.344;-1.580;2022-08-03T14:12:11;25.90;54.80
65155;DHT22;51741;52.344;-1.580;2022-08-03T14:14:37;25.90;54.50
65155;DHT22;51741;52.344;-1.580;2022-08-03T14:17:02;25.90;54.40
65155;DHT22;51741;52.344;-1.580;2022-08-03T14:19:28;25.90;54.40
65155;DHT22;51741;52.344;-1.580;2022-08-03T14:21:54;25.90;54.30
65155;DHT22;51741;52.344;-1.580;2022-08-03T14:24:20;25.90;54.30
65155;DHT22;51741;52.344;-1.580;2022-08-03T14:26:46;25.90;54.20
65155;DHT22;51741;52.344;-1.580;2022-08-03T14:29:12;25.90;54.10
65155;DHT22;51741;52.344;-1.580;2022-08-03T14:31:37;26.00;54.10
65155;DHT22;51741;52.344;-1.580;2022-08-03T14:34:03;26.00;54.00
65155;DHT22;51741;52.344;-1.580;2022-08-03T14:36:29;26.00;54.10
65155;DHT22;51741;52.344;-1.580;2022-08-03T14:38:55;26.00;54.20
65155;DHT22;51741;52.344;-1.580;2022-08-03T14:41:21;26.00;54.20
65155;DHT22;51741;52.344;-1.580;2022-08-03T14:43:47;26.00;54.20
65155;DHT22;51741;52.344;-1.580;2022-08-03T14:46:13;26.00;54.10
65155;DHT22;51741;52.344;-1.580;2022-08-03T14:48:39;26.00;54.00
65155;DHT22;51741;52.344;-1.580;2022-08-03T14:51:05;26.00;54.00
65155;DHT22;51741;52.344;-1.580;2022-08-03T14:53:31;26.00;53.90
65155;DHT22;51741;52.344;-1.580;2022-08-03T14:55:58;26.00;54.00
65155;DHT22;51741;52.344;-1.580;2022-08-03T14:58:24;26.00;53.90
65155;DHT22;51741;52.344;-1.580;2022-08-03T15:00:52;26.00;53.90
65155;DHT22;51741;52.344;-1.580;2022-08-03T15:03:19;26.00;53.80
65155;DHT22;51741;52.344;-1.580;2022-08-03T15:05:48;26.00;53.80
65155;DHT22;51741;52.344;-1.580;2022-08-03T15:08:14;26.00;53.70
65155;DHT22;51741;52.344;-1.580;2022-08-03T15:10:40;26.10;53.80
65155;DHT22;51741;52.344;-1.580;2022-08-03T15:13:06;26.10;53.80
65155;DHT22;51741;52.344;-1.580;2022-08-03T15:15:31;26.10;53.80
65155;DHT22;51741;52.344;-1.580;2022-08-03T15:17:58;26.10;53.60
65155;DHT22;51741;52.344;-1.580;2022-08-03T15:20:23;26.10;53.70
65155;DHT22;51741;52.344;-1.580;2022-08-03T15:22:49;26.00;53.50
65155;DHT22;51741;52.344;-1.580;2022-08-03T15:25:14;26.10;53.40
65155;DHT22;51741;52.344;-1.580;2022-08-03T15:27:40;26.10;53.40
65155;DHT22;51741;52.344;-1.580;2022-08-03T15:30:07;26.10;53.30
65155;DHT22;51741;52.344;-1.580;2022-08-03T15:32:35;26.10;53.30
65155;DHT22;51741;52.344;-1.580;2022-08-03T15:35:01;26.10;53.20
65155;DHT22;51741;52.344;-1.580;2022-08-03T15:37:26;26.10;53.10
65155;DHT22;51741;52.344;-1.580;2022-08-03T15:39:52;26.10;53.10
65155;DHT22;51741;52.344;-1.580;2022-08-03T15:42:18;26.10;53.10
65155;DHT22;51741;52.344;-1.580;2022-08-03T15:44:44;26.10;52.90
65155;DHT22;51741;52.344;-1.580;2022-08-03T15:47:10;26.10;53.00
65155;DHT22;51741;52.344;-1.580;2022-08-03T15:49:36;26.10;52.80
65155;DHT22;51741;52.344;-1.580;2022-08-03T15:52:02;26.10;52.80
65155;DHT22;51741;52.344;-1.580;2022-08-03T15:54:28;26.20;52.80
65155;DHT22;51741;52.344;-1.580;2022-08-03T15:56:54;26.10;52.60
65155;DHT22;51741;52.344;-1.580;2022-08-03T15:59:20;26.10;52.70
65155;DHT22;51741;52.344;-1.580;2022-08-03T16:01:46;26.20;52.60
65155;DHT22;51741;52.344;-1.580;2022-08-03T16:04:13;26.20;52.60
65155;DHT22;51741;52.344;-1.580;2022-08-03T16:06:38;26.20;52.70
65155;DHT22;51741;52.344;-1.580;2022-08-03T16:09:05;26.10;52.60
65155;DHT22;51741;52.344;-1.580;2022-08-03T16:11:32;26.20;52.70
65155;DHT22;51741;52.344;-1.580;2022-08-03T16:13:58;26.20;52.70
65155;DHT22;51741;52.344;-1.580;2022-08-03T16:16:24;26.20;52.60
65155;DHT22;51741;52.344;-1.580;2022-08-03T16:18:49;26.20;52.70
65155;DHT22;51741;52.344;-1.580;2022-08-03T16:21:15;26.20;52.70
65155;DHT22;51741;52.344;-1.580;2022-08-03T16:23:41;26.20;52.70